sensor_id;sensor_type;location;lat;lon;timestamp;pressure;altitude;pressure_sealevel;temperature;humidity
45731;BME280;31440;48.584;13.460;2022-12-05T00:01:55;96555.78;;;1.87;100.00
45731;BME280;31440;48.584;13.460;2022-12-05T00:04:21;96550.69;;;1.80;100.00
45731;BME280;31440;48.584;13.460;2022-12-05T00:06:46;96555.00;;;1.77;100.00
45731;BME280;31440;48.584;13.460;2022-12-05T00:09:13;96564.22;;;1.98;100.00
45731;BME280;31440;48.584;13.460;2022-12-05T00:11:40;96562.66;;;1.81;100.00
45731;BME280;31440;48.584;13.460;2022-12-05T00:14:07;96566.00;;;1.91;100.00
45731;BME280;31440;48.584;13.460;2022-12-05T00:16:36;96560.00;;;1.94;100.00
45731;BME280;31440;48.584;13.460;2022-12-05T00:19:03;96559.03;;;2.05;100.00
45731;BME280;31440;48.584;13.460;2022-12-05T00:21:31;96565.19;;;1.88;100.00
45731;BME280;31440;48.584;13.460;2022-12-05T00:23:58;96572.09;;;1.78;100.00
45731;BME280;31440;48.584;13.460;2022-12-05T00:26:25;96574.59;;;1.87;100.00
45731;BME280;31440;48.584;13.460;2022-12-05T00:28:51;96576.31;;;1.85;100.00
45731;BME280;31440;48.584;13.460;2022-12-05T00:31:20;96579.81;;;1.75;100.00
45731;BME280;31440;48.584;13.460;2022-12-05T00:33:46;96571.34;;;1.67;100.00
45731;BME280;31440;48.584;13.460;2022-12-05T00:36:15;96584.28;;;1.53;100.00
45731;BME280;31440;48.584;13.460;2022-12-05T00:38:41;96590.13;;;1.67;100.00
45731;BME280;31440;48.584;13.460;2022-12-05T00:41:13;96588.31;;;1.78;100.00
45731;BME280;31440;48.584;13.460;2022-12-05T00:43:40;96608.72;;;1.92;100.00
45731;BME280;31440;48.584;13.460;2022-12-05T00:46:12;96603.69;;;1.78;100.00
45731;BME280;31440;48.584;13.460;2022-12-05T00:48:38;96605.34;;;1.87;100.00
45731;BME280;31440;48.584;13.460;2022-12-05T00:53:34;96613.97;;;1.77;100.00
45731;BME280;31440;48.584;13.460;2022-12-05T00:56:06;96624.13;;;1.92;100.00
45731;BME280;31440;48.584;13.460;2022-12-05T00:58:31;96631.25;;;1.51;100.00
45731;BME280;31440;48.584;13.460;2022-12-05T01:01:04;96620.19;;;1.45;100.00
45731;BME280;31440;48.584;13.460;2022-12-05T01:03:30;96628.69;;;1.54;100.00
45731;BME280;31440;48.584;13.460;2022-12-05T01:05:58;96634.66;;;1.54;100.00
45731;BME280;31440;48.584;13.460;2022-12-05T01:08:23;96632.84;;;1.67;100.00
45731;BME280;31440;48.584;13.460;2022-12-05T01:10:53;96632.72;;;1.83;100.00
45731;BME280;31440;48.584;13.460;2022-12-05T01:13:19;96609.66;;;1.82;100.00
45731;BME280;31440;48.584;13.460;2022-12-05T01:15:45;96624.84;;;2.06;100.00
45731;BME280;31440;48.584;13.460;2022-12-05T01:18:10;96626.53;;;2.10;100.00
45731;BME280;31440;48.584;13.460;2022-12-05T01:20:38;96633.38;;;2.07;100.00
45731;BME280;31440;48.584;13.460;2022-12-05T01:23:04;96635.00;;;2.14;100.00
45731;BME280;31440;48.584;13.460;2022-12-05T01:25:30;96641.09;;;2.05;100.00
45731;BME280;31440;48.584;13.460;2022-12-05T01:27:55;96645.31;;;2.11;100.00
45731;BME280;31440;48.584;13.460;2022-12-05T01:30:21;96646.09;;;2.17;100.00
45731;BME280;31440;48.584;13.460;2022-12-05T01:32:46;96643.69;;;2.01;100.00
45731;BME280;31440;48.584;13.460;2022-12-05T01:35:12;96650.38;;;2.15;100.00
45731;BME280;31440;48.584;13.460;2022-12-05T01:37:38;96650.00;;;2.55;100.00
45731;BME280;31440;48.584;13.460;2022-12-05T01:40:04;96651.06;;;2.34;100.00
45731;BME280;31440;48.584;13.460;2022-12-05T01:42:30;96646.97;;;2.15;100.00
45731;BME280;31440;48.584;13.460;2022-12-05T01:45:14;96638.44;;;2.14;100.00
45731;BME280;31440;48.584;13.460;2022-12-05T01:47:40;96640.09;;;2.18;100.00
45731;BME280;31440;48.584;13.460;2022-12-05T01:50:06;96643.34;;;2.37;100.00
45731;BME280;31440;48.584;13.460;2022-12-05T01:52:32;96644.00;;;2.56;100.00
45731;BME280;31440;48.584;13.460;2022-12-05T01:55:11;96634.09;;;2.23;100.00
45731;BME280;31440;48.584;13.460;2022-12-05T01:57:37;96634.38;;;2.76;100.00
45731;BME280;31440;48.584;13.460;2022-12-05T02:00:09;96633.03;;;2.42;100.00
45731;BME280;31440;48.584;13.460;2022-12-05T02:02:40;96632.28;;;2.32;100.00
45731;BME280;31440;48.584;13.460;2022-12-05T02:05:26;96645.88;;;2.42;100.00
45731;BME280;31440;48.584;13.460;2022-12-05T02:07:52;96645.13;;;2.31;100.00
45731;BME280;31440;48.584;13.460;2022-12-05T02:10:18;96633.94;;;2.36;100.00
45731;BME280;31440;48.584;13.460;2022-12-05T02:12:44;96637.50;;;2.23;100.00
45731;BME280;31440;48.584;13.460;2022-12-05T02:15:34;96649.44;;;2.29;100.00
45731;BME280;31440;48.584;13.460;2022-12-05T02:18:16;96649.66;;;2.01;100.00
45731;BME280;31440;48.584;13.460;2022-12-05T02:24:03;96650.50;;;2.03;100.00
45731;BME280;31440;48.584;13.460;2022-12-05T02:26:49;96665.78;;;2.17;100.00
45731;BME280;31440;48.584;13.460;2022-12-05T02:32:12;96665.59;;;2.37;100.00
45731;BME280;31440;48.584;13.460;2022-12-05T02:42:40;96649.28;;;2.42;100.00
45731;BME280;31440;48.584;13.460;2022-12-05T02:45:10;96645.69;;;2.60;100.00
45731;BME280;31440;48.584;13.460;2022-12-05T02:47:41;96653.56;;;2.43;100.00
45731;BME280;31440;48.584;13.460;2022-12-05T02:50:10;96664.78;;;2.30;100.00
45731;BME280;31440;48.584;13.460;2022-12-05T02:52:39;96677.84;;;2.04;100.00
45731;BME280;31440;48.584;13.460;2022-12-05T02:55:07;96681.03;;;2.32;100.00
45731;BME280;31440;48.584;13.460;2022-12-05T02:57:34;96695.56;;;2.32;100.00
45731;BME280;31440;48.584;13.460;2022-12-05T03:00:00;96686.13;;;2.37;100.00
45731;BME280;31440;48.584;13.460;2022-12-05T03:02:30;96701.44;;;2.47;100.00
45731;BME280;31440;48.584;13.460;2022-12-05T03:05:03;96687.66;;;2.54;100.00
45731;BME280;31440;48.584;13.460;2022-12-05T03:07:54;96684.72;;;1.98;100.00
45731;BME280;31440;48.584;13.460;2022-12-05T03:10:24;96686.22;;;2.28;100.00
45731;BME280;31440;48.584;13.460;2022-12-05T03:12:55;96686.97;;;2.36;100.00
45731;BME280;31440;48.584;13.460;2022-12-05T03:15:27;96673.44;;;2.23;100.00
45731;BME280;31440;48.584;13.460;2022-12-05T03:18:04;96681.28;;;2.05;100.00
45731;BME280;31440;48.584;13.460;2022-12-05T03:20:37;96686.31;;;2.12;100.00
45731;BME280;31440;48.584;13.460;2022-12-05T03:23:19;96680.19;;;2.30;100.00
45731;BME280;31440;48.584;13.460;2022-12-05T03:26:10;96677.81;;;2.09;100.00
45731;BME280;31440;48.584;13.460;2022-12-05T03:29:06;96686.16;;;2.31;100.00
45731;BME280;31440;48.584;13.460;2022-12-05T03:31:48;96692.25;;;2.19;100.00
45731;BME280;31440;48.584;13.460;2022-12-05T03:34:27;96697.50;;;2.05;100.00
45731;BME280;31440;48.584;13.460;2022-12-05T03:36:56;96697.22;;;2.39;100.00
45731;BME280;31440;48.584;13.460;2022-12-05T03:39:28;96682.16;;;1.98;100.00
45731;BME280;31440;48.584;13.460;2022-12-05T03:42:13;96689.13;;;1.83;100.00
45731;BME280;31440;48.584;13.460;2022-12-05T03:44:53;96687.25;;;2.04;100.00
45731;BME280;31440;48.584;13.460;2022-12-05T03:47:37;96685.53;;;2.06;100.00
45731;BME280;31440;48.584;13.460;2022-12-05T03:50:12;96682.38;;;1.73;100.00
45731;BME280;31440;48.584;13.460;2022-12-05T03:52:46;96689.78;;;2.10;100.00
45731;BME280;31440;48.584;13.460;2022-12-05T03:55:15;96695.81;;;2.06;100.00
45731;BME280;31440;48.584;13.460;2022-12-05T03:57:55;96696.63;;;2.09;100.00
45731;BME280;31440;48.584;13.460;2022-12-05T04:00:23;96700.91;;;2.10;100.00
45731;BME280;31440;48.584;13.460;2022-12-05T04:03:09;96707.78;;;2.02;100.00
45731;BME280;31440;48.584;13.460;2022-12-05T04:05:48;96710.34;;;2.05;100.00
45731;BME280;31440;48.584;13.460;2022-12-05T04:08:23;96704.19;;;2.26;100.00
45731;BME280;31440;48.584;13.460;2022-12-05T04:10:52;96710.25;;;2.14;100.00
45731;BME280;31440;48.584;13.460;2022-12-05T04:16:01;96709.50;;;2.02;100.00
45731;BME280;31440;48.584;13.460;2022-12-05T04:18:54;96725.84;;;1.86;100.00
45731;BME280;31440;48.584;13.460;2022-12-05T04:21:24;96733.44;;;2.01;100.00
45731;BME280;31440;48.584;13.460;2022-12-05T04:24:07;96739.44;;;2.00;100.00
45731;BME280;31440;48.584;13.460;2022-12-05T04:30:03;96754.72;;;2.15;100.00
45731;BME280;31440;48.584;13.460;2022-12-05T04:32:39;96762.19;;;2.44;100.00
45731;BME280;31440;48.584;13.460;2022-12-05T04:35:13;96766.59;;;2.30;100.00
45731;BME280;31440;48.584;13.460;2022-12-05T04:37:41;96759.72;;;2.30;100.00
45731;BME280;31440;48.584;13.460;2022-12-05T04:40:13;96757.09;;;2.38;100.00
45731;BME280;31440;48.584;13.460;2022-12-05T04:42:41;96757.16;;;2.30;100.00
45731;BME280;31440;48.584;13.460;2022-12-05T04:45:09;96750.50;;;2.09;100.00
45731;BME280;31440;48.584;13.460;2022-12-05T04:47:41;96751.28;;;2.16;100.00
45731;BME280;31440;48.584;13.460;2022-12-05T04:50:09;96761.34;;;2.42;100.00
45731;BME280;31440;48.584;13.460;2022-12-05T04:52:38;96768.19;;;2.43;100.00
45731;BME280;31440;48.584;13.460;2022-12-05T04:55:14;96767.50;;;2.18;100.00
45731;BME280;31440;48.584;13.460;2022-12-05T04:58:06;96758.06;;;2.25;100.00
45731;BME280;31440;48.584;13.460;2022-12-05T05:00:37;96782.78;;;2.36;100.00
45731;BME280;31440;48.584;13.460;2022-12-05T05:03:14;96783.56;;;2.46;100.00
45731;BME280;31440;48.584;13.460;2022-12-05T05:05:46;96798.84;;;2.63;100.00
45731;BME280;31440;48.584;13.460;2022-12-05T05:08:18;96804.09;;;2.47;100.00
45731;BME280;31440;48.584;13.460;2022-12-05T05:10:51;96804.88;;;2.54;100.00
45731;BME280;31440;48.584;13.460;2022-12-05T05:13:19;96800.72;;;2.36;100.00
45731;BME280;31440;48.584;13.460;2022-12-05T05:15:44;96800.72;;;2.36;100.00
45731;BME280;31440;48.584;13.460;2022-12-05T05:18:10;96800.00;;;2.21;100.00
45731;BME280;31440;48.584;13.460;2022-12-05T05:20:35;96806.88;;;2.14;100.00
45731;BME280;31440;48.584;13.460;2022-12-05T05:23:01;96803.19;;;2.48;100.00
45731;BME280;31440;48.584;13.460;2022-12-05T05:25:26;96802.47;;;2.33;100.00
45731;BME280;31440;48.584;13.460;2022-12-05T05:27:54;96811.88;;;2.31;100.00
45731;BME280;31440;48.584;13.460;2022-12-05T05:30:21;96806.94;;;2.03;100.00
45731;BME280;31440;48.584;13.460;2022-12-05T05:32:49;96794.13;;;2.00;100.00
45731;BME280;31440;48.584;13.460;2022-12-05T05:35:14;96813.66;;;2.24;100.00
45731;BME280;31440;48.584;13.460;2022-12-05T05:37:41;96817.91;;;2.27;100.00
45731;BME280;31440;48.584;13.460;2022-12-05T05:40:09;96824.81;;;2.18;100.00
45731;BME280;31440;48.584;13.460;2022-12-05T05:42:35;96827.31;;;2.28;100.00
45731;BME280;31440;48.584;13.460;2022-12-05T05:45:01;96807.69;;;2.21;100.00
45731;BME280;31440;48.584;13.460;2022-12-05T05:47:26;96816.31;;;2.12;100.00
45731;BME280;31440;48.584;13.460;2022-12-05T05:49:53;96818.16;;;1.90;100.00
45731;BME280;31440;48.584;13.460;2022-12-05T05:52:18;96824.00;;;2.12;100.00
45731;BME280;31440;48.584;13.460;2022-12-05T05:54:44;96832.47;;;2.22;100.00
45731;BME280;31440;48.584;13.460;2022-12-05T05:57:09;96834.22;;;2.19;100.00
45731;BME280;31440;48.584;13.460;2022-12-05T05:59:35;96837.59;;;2.23;100.00
45731;BME280;31440;48.584;13.460;2022-12-05T06:02:00;96843.63;;;2.16;100.00
45731;BME280;31440;48.584;13.460;2022-12-05T06:04:26;96835.06;;;2.15;100.00
45731;BME280;31440;48.584;13.460;2022-12-05T06:06:51;96843.72;;;2.04;100.00
45731;BME280;31440;48.584;13.460;2022-12-05T06:09:17;96848.84;;;2.01;100.00
45731;BME280;31440;48.584;13.460;2022-12-05T06:11:42;96849.66;;;2.12;100.00
45731;BME280;31440;48.584;13.460;2022-12-05T06:14:08;96851.41;;;2.01;100.00
45731;BME280;31440;48.584;13.460;2022-12-05T06:16:34;96854.06;;;1.82;100.00
45731;BME280;31440;48.584;13.460;2022-12-05T06:18:59;96861.66;;;2.01;100.00
45731;BME280;31440;48.584;13.460;2022-12-05T06:21:25;96859.16;;;1.93;100.00
45731;BME280;31440;48.584;13.460;2022-12-05T06:23:50;96856.53;;;2.07;100.00
45731;BME280;31440;48.584;13.460;2022-12-05T06:26:18;96840.94;;;2.37;100.00
45731;BME280;31440;48.584;13.460;2022-12-05T06:28:45;96848.66;;;2.33;100.00
45731;BME280;31440;48.584;13.460;2022-12-05T06:31:13;96847.78;;;2.38;100.00
45731;BME280;31440;48.584;13.460;2022-12-05T06:33:38;96852.91;;;2.35;100.00
45731;BME280;31440;48.584;13.460;2022-12-05T06:36:07;96864.22;;;2.02;100.00
45731;BME280;31440;48.584;13.460;2022-12-05T06:38:33;96866.03;;;1.83;100.00
45731;BME280;31440;48.584;13.460;2022-12-05T06:40:58;96877.16;;;1.76;100.00
45731;BME280;31440;48.584;13.460;2022-12-05T06:43:24;96872.88;;;1.81;100.00
45731;BME280;31440;48.584;13.460;2022-12-05T06:45:50;96879.75;;;1.69;100.00
45731;BME280;31440;48.584;13.460;2022-12-05T06:48:15;96879.69;;;1.84;100.00
45731;BME280;31440;48.584;13.460;2022-12-05T06:50:50;96890.84;;;1.74;100.00
45731;BME280;31440;48.584;13.460;2022-12-05T06:53:17;96893.44;;;1.71;100.00
45731;BME280;31440;48.584;13.460;2022-12-05T06:55:43;96899.34;;;1.80;100.00
45731;BME280;31440;48.584;13.460;2022-12-05T06:58:08;96907.88;;;1.89;100.00
45731;BME280;31440;48.584;13.460;2022-12-05T07:00:34;96904.50;;;1.77;100.00
45731;BME280;31440;48.584;13.460;2022-12-05T07:03:18;96918.22;;;1.72;100.00
45731;BME280;31440;48.584;13.460;2022-12-05T07:05:43;96916.44;;;1.80;100.00
45731;BME280;31440;48.584;13.460;2022-12-05T07:08:09;96931.03;;;1.63;100.00
45731;BME280;31440;48.584;13.460;2022-12-05T07:10:34;96930.22;;;1.50;100.00
45731;BME280;31440;48.584;13.460;2022-12-05T07:13:00;96937.94;;;1.13;100.00
45731;BME280;31440;48.584;13.460;2022-12-05T07:15:26;96939.63;;;1.05;100.00
45731;BME280;31440;48.584;13.460;2022-12-05T07:17:51;96932.81;;;1.32;100.00
45731;BME280;31440;48.584;13.460;2022-12-05T07:20:17;96933.63;;;1.41;100.00
45731;BME280;31440;48.584;13.460;2022-12-05T07:22:43;96915.75;;;0.82;100.00
45731;BME280;31440;48.584;13.460;2022-12-05T07:25:10;96949.91;;;1.02;100.00
45731;BME280;31440;48.584;13.460;2022-12-05T07:27:35;96949.03;;;0.96;100.00
45731;BME280;31440;48.584;13.460;2022-12-05T07:30:01;96956.72;;;1.02;100.00
45731;BME280;31440;48.584;13.460;2022-12-05T07:32:31;96960.91;;;0.47;100.00
45731;BME280;31440;48.584;13.460;2022-12-05T07:34:56;96969.44;;;0.52;100.00
45731;BME280;31440;48.584;13.460;2022-12-05T07:37:22;96974.59;;;0.59;100.00
45731;BME280;31440;48.584;13.460;2022-12-05T07:39:48;96979.72;;;0.62;100.00
45731;BME280;31440;48.584;13.460;2022-12-05T07:42:14;96990.78;;;0.61;100.00
45731;BME280;31440;48.584;13.460;2022-12-05T07:44:39;96984.00;;;0.78;100.00
45731;BME280;31440;48.584;13.460;2022-12-05T07:47:05;96979.72;;;0.70;100.00
45731;BME280;31440;48.584;13.460;2022-12-05T07:49:31;96990.84;;;0.83;100.00
45731;BME280;31440;48.584;13.460;2022-12-05T07:51:56;96990.88;;;1.02;100.00
45731;BME280;31440;48.584;13.460;2022-12-05T07:54:22;96990.81;;;0.64;100.00
45731;BME280;31440;48.584;13.460;2022-12-05T07:56:47;96987.41;;;0.71;100.00
45731;BME280;31440;48.584;13.460;2022-12-05T07:59:13;96995.06;;;0.70;100.00
45731;BME280;31440;48.584;13.460;2022-12-05T08:01:38;96993.41;;;0.86;100.00
45731;BME280;31440;48.584;13.460;2022-12-05T08:04:04;96989.91;;;0.56;100.00
45731;BME280;31440;48.584;13.460;2022-12-05T08:06:30;96995.09;;;0.88;100.00
45731;BME280;31440;48.584;13.460;2022-12-05T08:08:56;96976.31;;;0.78;100.00
45731;BME280;31440;48.584;13.460;2022-12-05T08:11:26;96987.38;;;0.61;100.00
45731;BME280;31440;48.584;13.460;2022-12-05T08:13:53;96984.84;;;0.76;100.00
45731;BME280;31440;48.584;13.460;2022-12-05T08:16:22;96989.91;;;0.53;100.00
45731;BME280;31440;48.584;13.460;2022-12-05T08:18:47;96994.19;;;0.50;100.00
45731;BME280;31440;48.584;13.460;2022-12-05T08:21:16;96991.59;;;0.42;100.00
45731;BME280;31440;48.584;13.460;2022-12-05T08:23:43;96993.31;;;0.55;100.00
45731;BME280;31440;48.584;13.460;2022-12-05T08:26:11;96995.88;;;0.55;100.00
45731;BME280;31440;48.584;13.460;2022-12-05T08:28:37;97005.28;;;0.49;100.00
45731;BME280;31440;48.584;13.460;2022-12-05T08:31:11;97002.72;;;0.49;100.00
45731;BME280;31440;48.584;13.460;2022-12-05T08:33:37;96997.56;;;0.41;100.00
45731;BME280;31440;48.584;13.460;2022-12-05T08:36:05;97008.66;;;0.54;100.00
45731;BME280;31440;48.584;13.460;2022-12-05T08:38:31;97012.16;;;0.68;100.00
45731;BME280;31440;48.584;13.460;2022-12-05T08:41:05;97006.97;;;0.48;100.00
45731;BME280;31440;48.584;13.460;2022-12-05T08:43:32;97006.16;;;0.69;100.00
45731;BME280;31440;48.584;13.460;2022-12-05T08:45:58;97006.97;;;0.54;100.00
45731;BME280;31440;48.584;13.460;2022-12-05T08:48:26;97011.28;;;0.61;100.00
45731;BME280;31440;48.584;13.460;2022-12-05T08:53:19;97007.91;;;0.84;100.00
45731;BME280;31440;48.584;13.460;2022-12-05T08:55:45;97007.03;;;0.80;100.00
45731;BME280;31440;48.584;13.460;2022-12-05T08:58:11;97004.53;;;1.24;100.00
45731;BME280;31440;48.584;13.460;2022-12-05T09:00:37;96999.41;;;1.45;100.00
45731;BME280;31440;48.584;13.460;2022-12-05T09:03:03;96994.28;;;1.35;100.00
45731;BME280;31440;48.584;13.460;2022-12-05T09:05:29;97003.69;;;1.33;100.00
45731;BME280;31440;48.584;13.460;2022-12-05T09:07:55;96997.66;;;1.63;100.00
45731;BME280;31440;48.584;13.460;2022-12-05T09:10:21;97007.94;;;1.54;100.00
45731;BME280;31440;48.584;13.460;2022-12-05T09:12:47;97001.94;;;1.73;100.00
45731;BME280;31440;48.584;13.460;2022-12-05T09:15:14;97008.78;;;1.40;100.00
45731;BME280;31440;48.584;13.460;2022-12-05T09:17:40;96995.16;;;1.03;100.00
45731;BME280;31440;48.584;13.460;2022-12-05T09:20:06;97004.53;;;1.13;100.00
45731;BME280;31440;48.584;13.460;2022-12-05T09:22:32;97007.09;;;1.29;100.00
45731;BME280;31440;48.584;13.460;2022-12-05T09:24:58;97002.81;;;1.29;100.00
45731;BME280;31440;48.584;13.460;2022-12-05T09:27:24;97012.19;;;1.23;100.00
45731;BME280;31440;48.584;13.460;2022-12-05T09:29:50;97010.50;;;1.55;100.00
45731;BME280;31440;48.584;13.460;2022-12-05T09:32:15;97009.66;;;1.29;100.00
45731;BME280;31440;48.584;13.460;2022-12-05T09:34:41;97006.22;;;1.43;100.00
45731;BME280;31440;48.584;13.460;2022-12-05T09:37:07;97005.38;;;1.57;100.00
45731;BME280;31440;48.584;13.460;2022-12-05T09:39:33;97006.22;;;1.27;100.00
45731;BME280;31440;48.584;13.460;2022-12-05T09:42:15;97011.34;;;1.13;100.00
45731;BME280;31440;48.584;13.460;2022-12-05T09:45:39;97021.47;;;0.52;100.00
45731;BME280;31440;48.584;13.460;2022-12-05T09:48:10;97023.22;;;0.74;100.00
45731;BME280;31440;48.584;13.460;2022-12-05T09:50:43;97023.19;;;0.49;100.00
45731;BME280;31440;48.584;13.460;2022-12-05T09:53:29;97017.31;;;0.86;100.00
45731;BME280;31440;48.584;13.460;2022-12-05T09:56:22;97016.41;;;0.64;100.00
45731;BME280;31440;48.584;13.460;2022-12-05T09:58:50;97007.03;;;0.75;100.00
45731;BME280;31440;48.584;13.460;2022-12-05T10:01:25;97009.59;;;0.88;100.00
45731;BME280;31440;48.584;13.460;2022-12-05T10:09:37;97011.25;;;0.58;100.00
45731;BME280;31440;48.584;13.460;2022-12-05T10:15:32;96999.34;;;0.65;100.00
45731;BME280;31440;48.584;13.460;2022-12-05T10:18:01;96976.22;;;0.33;100.00
45731;BME280;31440;48.584;13.460;2022-12-05T10:20:35;97002.72;;;0.61;100.00
45731;BME280;31440;48.584;13.460;2022-12-05T10:23:15;97003.53;;;0.40;100.00
45731;BME280;31440;48.584;13.460;2022-12-05T10:25:43;96997.53;;;0.35;100.00
45731;BME280;31440;48.584;13.460;2022-12-05T10:28:19;96996.75;;;0.60;100.00
45731;BME280;31440;48.584;13.460;2022-12-05T10:30:54;97011.31;;;0.76;100.00
45731;BME280;31440;48.584;13.460;2022-12-05T10:33:22;97005.25;;;0.55;100.00
45731;BME280;31440;48.584;13.460;2022-12-05T10:35:48;97012.03;;;0.31;100.00
45731;BME280;31440;48.584;13.460;2022-12-05T10:38:28;97018.84;;;0.37;100.00
45731;BME280;31440;48.584;13.460;2022-12-05T10:41:02;97020.69;;;0.67;100.00
45731;BME280;31440;48.584;13.460;2022-12-05T10:43:30;97016.41;;;0.64;100.00
45731;BME280;31440;48.584;13.460;2022-12-05T10:45:57;97016.34;;;0.52;100.00
45731;BME280;31440;48.584;13.460;2022-12-05T10:48:23;97006.16;;;0.60;100.00
45731;BME280;31440;48.584;13.460;2022-12-05T10:50:51;97005.31;;;0.65;100.00
45731;BME280;31440;48.584;13.460;2022-12-05T10:53:21;97010.41;;;0.61;100.00
45731;BME280;31440;48.584;13.460;2022-12-05T10:55:49;97008.59;;;0.25;100.00
45731;BME280;31440;48.584;13.460;2022-12-05T10:58:17;97004.38;;;0.43;100.00
45731;BME280;31440;48.584;13.460;2022-12-05T11:00:51;97009.59;;;0.68;100.00
45731;BME280;31440;48.584;13.460;2022-12-05T11:03:28;96999.38;;;0.82;100.00
45731;BME280;31440;48.584;13.460;2022-12-05T11:05:59;96989.91;;;0.52;100.00
45731;BME280;31440;48.584;13.460;2022-12-05T11:08:30;96992.53;;;0.73;100.00
45731;BME280;31440;48.584;13.460;2022-12-05T11:11:04;96980.59;;;0.90;100.00
45731;BME280;31440;48.584;13.460;2022-12-05T11:13:31;97004.34;;;0.31;100.00
45731;BME280;31440;48.584;13.460;2022-12-05T11:15:57;97001.09;;;1.05;100.00
45731;BME280;31440;48.584;13.460;2022-12-05T11:20:49;96989.94;;;0.70;100.00
45731;BME280;31440;48.584;13.460;2022-12-05T11:23:23;97003.53;;;0.44;100.00
45731;BME280;31440;48.584;13.460;2022-12-05T11:25:50;96971.22;;;0.80;100.00
45731;BME280;31440;48.584;13.460;2022-12-05T11:31:01;96991.69;;;0.83;100.00
45731;BME280;31440;48.584;13.460;2022-12-05T11:33:30;96998.50;;;0.75;100.00
45731;BME280;31440;48.584;13.460;2022-12-05T11:36:02;97007.84;;;0.56;100.00
45731;BME280;31440;48.584;13.460;2022-12-05T11:38:28;96997.69;;;0.96;100.00
45731;BME280;31440;48.584;13.460;2022-12-05T11:49:56;97004.34;;;0.31;100.00
45731;BME280;31440;48.584;13.460;2022-12-05T12:13:56;97009.63;;;0.83;100.00
45731;BME280;31440;48.584;13.460;2022-12-05T12:16:57;97014.63;;;0.51;100.00
45731;BME280;31440;48.584;13.460;2022-12-05T12:25:02;97007.06;;;0.86;100.00
45731;BME280;31440;48.584;13.460;2022-12-05T12:27:54;97011.34;;;1.05;100.00
45731;BME280;31440;48.584;13.460;2022-12-05T12:40:54;97004.53;;;1.00;100.00
45731;BME280;31440;48.584;13.460;2022-12-05T12:43:37;97009.66;;;1.03;100.00
45731;BME280;31440;48.584;13.460;2022-12-05T12:46:29;97011.38;;;1.04;100.00
45731;BME280;31440;48.584;13.460;2022-12-05T12:49:10;97002.81;;;1.17;100.00
45731;BME280;31440;48.584;13.460;2022-12-05T12:51:44;97006.25;;;1.14;100.00
45731;BME280;31440;48.584;13.460;2022-12-05T12:56:59;97003.66;;;0.86;100.00
45731;BME280;31440;48.584;13.460;2022-12-05T12:59:46;97005.38;;;1.00;100.00
45731;BME280;31440;48.584;13.460;2022-12-05T13:02:38;96995.13;;;1.00;100.00
45731;BME280;31440;48.584;13.460;2022-12-05T13:07:52;96983.19;;;1.30;100.00
45731;BME280;31440;48.584;13.460;2022-12-05T13:10:32;96993.44;;;1.22;100.00
45731;BME280;31440;48.584;13.460;2022-12-05T13:12:59;96984.03;;;1.38;100.00
45731;BME280;31440;48.584;13.460;2022-12-05T13:15:37;96985.75;;;1.28;100.00
45731;BME280;31440;48.584;13.460;2022-12-05T13:18:06;96986.59;;;0.86;100.00
45731;BME280;31440;48.584;13.460;2022-12-05T13:20:38;96987.44;;;1.11;100.00
45731;BME280;31440;48.584;13.460;2022-12-05T13:23:04;96989.16;;;1.18;100.00
45731;BME280;31440;48.584;13.460;2022-12-05T13:25:34;96990.00;;;0.91;100.00
45731;BME280;31440;48.584;13.460;2022-12-05T13:28:05;96996.00;;;1.04;100.00
45731;BME280;31440;48.584;13.460;2022-12-05T13:30:34;97002.81;;;1.00;100.00
45731;BME280;31440;48.584;13.460;2022-12-05T13:33:24;96995.13;;;1.26;100.00
45731;BME280;31440;48.584;13.460;2022-12-05T13:36:02;96995.13;;;1.28;100.00
45731;BME280;31440;48.584;13.460;2022-12-05T13:38:47;96994.28;;;1.17;100.00
45731;BME280;31440;48.584;13.460;2022-12-05T13:41:39;97001.94;;;0.95;100.00
45731;BME280;31440;48.584;13.460;2022-12-05T13:44:31;97007.91;;;0.85;100.00
45731;BME280;31440;48.584;13.460;2022-12-05T13:46:59;97011.31;;;0.79;100.00
45731;BME280;31440;48.584;13.460;2022-12-05T13:49:41;97006.16;;;0.61;100.00
45731;BME280;31440;48.584;13.460;2022-12-05T13:52:30;97005.34;;;0.77;100.00
45731;BME280;31440;48.584;13.460;2022-12-05T13:55:15;97010.50;;;1.12;100.00
45731;BME280;31440;48.584;13.460;2022-12-05T13:57:45;97011.34;;;1.13;100.00
45731;BME280;31440;48.584;13.460;2022-12-05T14:05:37;97024.19;;;1.18;100.00
45731;BME280;31440;48.584;13.460;2022-12-05T14:15:42;97013.91;;;1.14;100.00
45731;BME280;31440;48.584;13.460;2022-12-05T14:32:04;97009.66;;;1.17;100.00
45731;BME280;31440;48.584;13.460;2022-12-05T14:34:36;97005.41;;;1.37;100.00
45731;BME280;31440;48.584;13.460;2022-12-05T14:39:41;96995.16;;;1.40;100.00
45731;BME280;31440;48.584;13.460;2022-12-05T14:48:04;96984.03;;;1.30;100.00
45731;BME280;31440;48.584;13.460;2022-12-05T14:58:45;96964.25;;;2.04;100.00
45731;BME280;31440;48.584;13.460;2022-12-05T15:01:38;96965.16;;;1.83;100.00
45731;BME280;31440;48.584;13.460;2022-12-05T15:07:01;96973.66;;;1.96;100.00
45731;BME280;31440;48.584;13.460;2022-12-05T15:09:40;96967.69;;;2.00;100.00
45731;BME280;31440;48.584;13.460;2022-12-05T15:12:19;96969.50;;;1.57;100.00
45731;BME280;31440;48.584;13.460;2022-12-05T15:15:12;96962.63;;;1.62;100.00
45731;BME280;31440;48.584;13.460;2022-12-05T15:17:47;96972.84;;;1.94;100.00
45731;BME280;31440;48.584;13.460;2022-12-05T15:20:51;96964.25;;;2.07;100.00
45731;BME280;31440;48.584;13.460;2022-12-05T15:23:48;96977.13;;;1.79;100.00
45731;BME280;31440;48.584;13.460;2022-12-05T15:26:26;96952.28;;;2.01;100.00
45731;BME280;31440;48.584;13.460;2022-12-05T15:32:02;96979.69;;;1.93;100.00